sensor_id;sensor_type;location;lat;lon;timestamp;pressure;altitude;pressure_sealevel;temperature;humidity
59274;BME280;45044;41.572;24.730;2023-03-22T00:00:09;90886.44;;;7.20;100.00
59274;BME280;45044;41.572;24.730;2023-03-22T00:02:42;90877.69;;;7.47;100.00
59274;BME280;45044;41.572;24.730;2023-03-22T00:05:09;90870.50;;;7.40;100.00
59274;BME280;45044;41.572;24.730;2023-03-22T00:07:35;90863.09;;;7.49;100.00
59274;BME280;45044;41.572;24.730;2023-03-22T00:10:04;90864.69;;;7.61;100.00
59274;BME280;45044;41.572;24.730;2023-03-22T00:12:31;90838.13;;;7.55;100.00
59274;BME280;45044;41.572;24.730;2023-03-22T00:14:57;90842.28;;;7.67;100.00
59274;BME280;45044;41.572;24.730;2023-03-22T00:17:30;90854.66;;;7.74;100.00
59274;BME280;45044;41.572;24.730;2023-03-22T00:19:58;90836.28;;;7.63;100.00
59274;BME280;45044;41.572;24.730;2023-03-22T00:22:24;90855.66;;;7.55;100.00
59274;BME280;45044;41.572;24.730;2023-03-22T00:24:51;90847.47;;;7.57;100.00
59274;BME280;45044;41.572;24.730;2023-03-22T00:27:18;90848.31;;;7.75;100.00
59274;BME280;45044;41.572;24.730;2023-03-22T00:29:45;90849.09;;;7.79;100.00
59274;BME280;45044;41.572;24.730;2023-03-22T00:32:12;90852.09;;;7.89;100.00
59274;BME280;45044;41.572;24.730;2023-03-22T00:34:38;90848.03;;;7.95;100.00
59274;BME280;45044;41.572;24.730;2023-03-22T00:37:05;90846.19;;;7.99;100.00
59274;BME280;45044;41.572;24.730;2023-03-22T00:39:33;90838.72;;;8.01;100.00
59274;BME280;45044;41.572;24.730;2023-03-22T00:42:00;90840.19;;;7.95;100.00
59274;BME280;45044;41.572;24.730;2023-03-22T00:44:26;90834.19;;;7.98;100.00
59274;BME280;45044;41.572;24.730;2023-03-22T00:46:53;90842.56;;;7.51;100.00
59274;BME280;45044;41.572;24.730;2023-03-22T00:49:20;90834.25;;;7.35;100.00
59274;BME280;45044;41.572;24.730;2023-03-22T00:51:47;90839.53;;;7.42;100.00
59274;BME280;45044;41.572;24.730;2023-03-22T00:54:14;90833.25;;;7.50;100.00
59274;BME280;45044;41.572;24.730;2023-03-22T00:56:42;90831.69;;;7.46;100.00
59274;BME280;45044;41.572;24.730;2023-03-22T00:59:12;90821.94;;;7.39;100.00
59274;BME280;45044;41.572;24.730;2023-03-22T01:01:39;90825.00;;;7.48;100.00
59274;BME280;45044;41.572;24.730;2023-03-22T01:04:06;90823.41;;;7.36;100.00
59274;BME280;45044;41.572;24.730;2023-03-22T01:06:33;90828.31;;;6.85;100.00
59274;BME280;45044;41.572;24.730;2023-03-22T01:09:01;90832.06;;;6.88;100.00
59274;BME280;45044;41.572;24.730;2023-03-22T01:11:27;90821.03;;;7.13;100.00
59274;BME280;45044;41.572;24.730;2023-03-22T01:13:54;90827.13;;;7.28;100.00
59274;BME280;45044;41.572;24.730;2023-03-22T01:16:21;90823.00;;;7.23;100.00
59274;BME280;45044;41.572;24.730;2023-03-22T01:18:48;90821.53;;;6.80;100.00
59274;BME280;45044;41.572;24.730;2023-03-22T01:21:14;90818.03;;;6.62;100.00
59274;BME280;45044;41.572;24.730;2023-03-22T01:23:41;90814.31;;;6.63;100.00
59274;BME280;45044;41.572;24.730;2023-03-22T01:26:08;90813.88;;;6.57;100.00
59274;BME280;45044;41.572;24.730;2023-03-22T01:28:35;90800.63;;;6.80;100.00
59274;BME280;45044;41.572;24.730;2023-03-22T01:31:02;90810.69;;;6.78;100.00
59274;BME280;45044;41.572;24.730;2023-03-22T01:33:29;90801.50;;;6.95;100.00
59274;BME280;45044;41.572;24.730;2023-03-22T01:35:56;90801.47;;;6.92;100.00
59274;BME280;45044;41.572;24.730;2023-03-22T01:38:23;90805.75;;;6.66;100.00
59274;BME280;45044;41.572;24.730;2023-03-22T01:40:50;90801.16;;;6.97;100.00
59274;BME280;45044;41.572;24.730;2023-03-22T01:43:17;90794.13;;;7.09;100.00
59274;BME280;45044;41.572;24.730;2023-03-22T01:45:51;90791.19;;;7.14;100.00
59274;BME280;45044;41.572;24.730;2023-03-22T01:48:29;90789.03;;;7.27;100.00
59274;BME280;45044;41.572;24.730;2023-03-22T01:51:04;90794.28;;;7.34;100.00
59274;BME280;45044;41.572;24.730;2023-03-22T01:53:36;90789.78;;;7.35;100.00
59274;BME280;45044;41.572;24.730;2023-03-22T01:56:05;90791.19;;;7.14;100.00
59274;BME280;45044;41.572;24.730;2023-03-22T01:58:35;90786.72;;;7.18;100.00
59274;BME280;45044;41.572;24.730;2023-03-22T02:01:04;90789.31;;;7.18;100.00
59274;BME280;45044;41.572;24.730;2023-03-22T02:03:39;90789.16;;;6.96;100.00
59274;BME280;45044;41.572;24.730;2023-03-22T02:06:08;90788.91;;;6.59;100.00
59274;BME280;45044;41.572;24.730;2023-03-22T02:08:35;90783.44;;;6.76;100.00
59274;BME280;45044;41.572;24.730;2023-03-22T02:11:02;90788.75;;;6.87;100.00
59274;BME280;45044;41.572;24.730;2023-03-22T02:13:59;90786.84;;;6.83;100.00
59274;BME280;45044;41.572;24.730;2023-03-22T02:29:50;90793.59;;;6.85;100.00
59274;BME280;45044;41.572;24.730;2023-03-22T02:35:32;90793.13;;;6.71;100.00
59274;BME280;45044;41.572;24.730;2023-03-22T02:46:22;90805.63;;;6.51;100.00
59274;BME280;45044;41.572;24.730;2023-03-22T02:51:52;90806.44;;;6.59;100.00
59274;BME280;45044;41.572;24.730;2023-03-22T02:54:28;90804.31;;;6.72;100.00
59274;BME280;45044;41.572;24.730;2023-03-22T02:57:12;90806.44;;;6.59;100.00
59274;BME280;45044;41.572;24.730;2023-03-22T02:59:42;90808.59;;;6.50;100.00
59274;BME280;45044;41.572;24.730;2023-03-22T03:02:12;90807.06;;;6.45;100.00
59274;BME280;45044;41.572;24.730;2023-03-22T03:04:46;90802.19;;;6.40;100.00
59274;BME280;45044;41.572;24.730;2023-03-22T03:07:18;90814.84;;;6.03;100.00
59274;BME280;45044;41.572;24.730;2023-03-22T03:09:47;90821.81;;;5.95;100.00
59274;BME280;45044;41.572;24.730;2023-03-22T03:12:20;90820.28;;;5.91;100.00
59274;BME280;45044;41.572;24.730;2023-03-22T03:14:49;90820.75;;;6.00;100.00
59274;BME280;45044;41.572;24.730;2023-03-22T03:27:52;90833.75;;;5.96;100.00
59274;BME280;45044;41.572;24.730;2023-03-22T03:30:38;90816.16;;;5.90;100.00
59274;BME280;45044;41.572;24.730;2023-03-22T03:33:13;90826.75;;;5.70;100.00
59274;BME280;45044;41.572;24.730;2023-03-22T03:35:48;90830.16;;;5.74;100.00
59274;BME280;45044;41.572;24.730;2023-03-22T03:38:20;90830.25;;;5.81;100.00
59274;BME280;45044;41.572;24.730;2023-03-22T03:41:00;90831.03;;;5.85;100.00
59274;BME280;45044;41.572;24.730;2023-03-22T03:43:28;90837.53;;;5.99;100.00
59274;BME280;45044;41.572;24.730;2023-03-22T03:45:56;90839.41;;;6.02;100.00
59274;BME280;45044;41.572;24.730;2023-03-22T03:48:31;90836.00;;;5.98;100.00
59274;BME280;45044;41.572;24.730;2023-03-22T03:51:00;90846.34;;;6.18;100.00
59274;BME280;45044;41.572;24.730;2023-03-22T03:53:28;90839.59;;;6.17;100.00
59274;BME280;45044;41.572;24.730;2023-03-22T03:55:55;90842.31;;;5.93;100.00
59274;BME280;45044;41.572;24.730;2023-03-22T03:58:21;90845.00;;;5.70;100.00
59274;BME280;45044;41.572;24.730;2023-03-22T04:00:48;90842.00;;;5.68;100.00
59274;BME280;45044;41.572;24.730;2023-03-22T04:03:16;90849.69;;;5.87;100.00
59274;BME280;45044;41.572;24.730;2023-03-22T04:05:43;90848.94;;;5.87;100.00
59274;BME280;45044;41.572;24.730;2023-03-22T04:08:10;90858.59;;;5.83;100.00
59274;BME280;45044;41.572;24.730;2023-03-22T04:10:37;90847.22;;;5.68;100.00
59274;BME280;45044;41.572;24.730;2023-03-22T04:13:04;90852.56;;;5.79;100.00
59274;BME280;45044;41.572;24.730;2023-03-22T04:15:31;90858.66;;;5.90;100.00
59274;BME280;45044;41.572;24.730;2023-03-22T04:17:58;90861.72;;;5.96;100.00
59274;BME280;45044;41.572;24.730;2023-03-22T04:20:25;90848.00;;;6.03;100.00
59274;BME280;45044;41.572;24.730;2023-03-22T04:22:52;90863.88;;;6.21;100.00
59274;BME280;45044;41.572;24.730;2023-03-22T04:25:19;90866.63;;;6.32;100.00
59274;BME280;45044;41.572;24.730;2023-03-22T04:27:48;90867.47;;;6.40;100.00
59274;BME280;45044;41.572;24.730;2023-03-22T04:30:17;90861.13;;;6.41;100.00
59274;BME280;45044;41.572;24.730;2023-03-22T04:32:46;90861.16;;;6.44;100.00
59274;BME280;45044;41.572;24.730;2023-03-22T04:35:14;90864.41;;;6.34;100.00
59274;BME280;45044;41.572;24.730;2023-03-22T04:37:41;90868.00;;;6.22;100.00
59274;BME280;45044;41.572;24.730;2023-03-22T04:40:09;90871.72;;;6.21;100.00
59274;BME280;45044;41.572;24.730;2023-03-22T04:42:42;90876.88;;;5.86;100.00
59274;BME280;45044;41.572;24.730;2023-03-22T04:45:10;90879.38;;;6.06;100.00
59274;BME280;45044;41.572;24.730;2023-03-22T04:47:38;90877.75;;;5.98;100.00
59274;BME280;45044;41.572;24.730;2023-03-22T04:50:05;90874.50;;;6.05;100.00
59274;BME280;45044;41.572;24.730;2023-03-22T04:52:32;90878.66;;;6.09;100.00
59274;BME280;45044;41.572;24.730;2023-03-22T04:54:59;90893.84;;;6.04;100.00
59274;BME280;45044;41.572;24.730;2023-03-22T04:57:26;90895.88;;;5.83;100.00
59274;BME280;45044;41.572;24.730;2023-03-22T04:59:53;90895.06;;;5.79;100.00
59274;BME280;45044;41.572;24.730;2023-03-22T05:02:19;90896.50;;;5.77;100.00
59274;BME280;45044;41.572;24.730;2023-03-22T05:04:46;90899.72;;;5.66;100.00
59274;BME280;45044;41.572;24.730;2023-03-22T05:07:13;90901.38;;;5.51;100.00
59274;BME280;45044;41.572;24.730;2023-03-22T05:09:40;90895.22;;;5.36;100.00
59274;BME280;45044;41.572;24.730;2023-03-22T05:12:06;90898.06;;;5.27;100.00
59274;BME280;45044;41.572;24.730;2023-03-22T05:14:33;90918.06;;;5.46;100.00
59274;BME280;45044;41.572;24.730;2023-03-22T05:17:00;90913.91;;;5.42;100.00
59274;BME280;45044;41.572;24.730;2023-03-22T05:19:27;90911.13;;;5.54;100.00
59274;BME280;45044;41.572;24.730;2023-03-22T05:21:54;90924.84;;;5.51;100.00
59274;BME280;45044;41.572;24.730;2023-03-22T05:24:24;90920.53;;;5.35;100.00
59274;BME280;45044;41.572;24.730;2023-03-22T05:26:51;90927.50;;;5.55;100.00
59274;BME280;45044;41.572;24.730;2023-03-22T05:29:19;90928.38;;;5.62;100.00
59274;BME280;45044;41.572;24.730;2023-03-22T05:31:47;90908.50;;;5.54;100.00
59274;BME280;45044;41.572;24.730;2023-03-22T05:34:14;90930.25;;;5.38;100.00
59274;BME280;45044;41.572;24.730;2023-03-22T05:36:40;90938.19;;;4.99;100.00
59274;BME280;45044;41.572;24.730;2023-03-22T05:39:08;90935.53;;;5.19;100.00
59274;BME280;45044;41.572;24.730;2023-03-22T05:41:34;90944.28;;;5.30;100.00
59274;BME280;45044;41.572;24.730;2023-03-22T05:44:03;90947.75;;;5.14;100.00
59274;BME280;45044;41.572;24.730;2023-03-22T05:46:30;90948.44;;;5.11;100.00
59274;BME280;45044;41.572;24.730;2023-03-22T05:48:57;90951.56;;;5.21;100.00
59274;BME280;45044;41.572;24.730;2023-03-22T05:51:24;90959.63;;;5.12;100.00
59274;BME280;45044;41.572;24.730;2023-03-22T05:53:51;90956.31;;;5.15;100.00
59274;BME280;45044;41.572;24.730;2023-03-22T05:56:19;90957.78;;;5.12;100.00
59274;BME280;45044;41.572;24.730;2023-03-22T05:58:50;90961.53;;;5.38;100.00
59274;BME280;45044;41.572;24.730;2023-03-22T06:01:17;90956.66;;;5.37;100.00
59274;BME280;45044;41.572;24.730;2023-03-22T06:03:46;90964.78;;;5.32;100.00
59274;BME280;45044;41.572;24.730;2023-03-22T06:06:13;90962.75;;;5.21;100.00
59274;BME280;45044;41.572;24.730;2023-03-22T06:08:41;90971.06;;;5.27;100.00
59274;BME280;45044;41.572;24.730;2023-03-22T06:11:08;90969.69;;;5.37;100.00
59274;BME280;45044;41.572;24.730;2023-03-22T06:13:35;90971.41;;;5.53;100.00
59274;BME280;45044;41.572;24.730;2023-03-22T06:16:03;90982.78;;;5.64;100.00
59274;BME280;45044;41.572;24.730;2023-03-22T06:18:31;90979.50;;;5.71;100.00
59274;BME280;45044;41.572;24.730;2023-03-22T06:20:58;90983.13;;;5.62;100.00
59274;BME280;45044;41.572;24.730;2023-03-22T06:23:25;90974.25;;;5.67;100.00
59274;BME280;45044;41.572;24.730;2023-03-22T06:25:52;90983.25;;;5.97;100.00
59274;BME280;45044;41.572;24.730;2023-03-22T06:28:19;90987.06;;;6.03;100.00
59274;BME280;45044;41.572;24.730;2023-03-22T06:30:46;90991.16;;;6.04;100.00
59274;BME280;45044;41.572;24.730;2023-03-22T06:33:12;90991.28;;;6.11;100.00
59274;BME280;45044;41.572;24.730;2023-03-22T06:35:39;90991.75;;;6.17;100.00
59274;BME280;45044;41.572;24.730;2023-03-22T06:38:06;90995.41;;;6.13;100.00
59274;BME280;45044;41.572;24.730;2023-03-22T06:40:33;90990.94;;;6.13;100.00
59274;BME280;45044;41.572;24.730;2023-03-22T06:43:01;91002.34;;;6.28;100.00
59274;BME280;45044;41.572;24.730;2023-03-22T06:45:32;91003.19;;;6.36;100.00
59274;BME280;45044;41.572;24.730;2023-03-22T06:47:59;91003.56;;;6.38;100.00
59274;BME280;45044;41.572;24.730;2023-03-22T06:50:27;91005.75;;;6.32;100.00
59274;BME280;45044;41.572;24.730;2023-03-22T06:52:54;91002.13;;;6.14;100.00
59274;BME280;45044;41.572;24.730;2023-03-22T06:55:21;91013.56;;;6.05;100.00
59274;BME280;45044;41.572;24.730;2023-03-22T06:57:48;91006.34;;;6.22;100.00
59274;BME280;45044;41.572;24.730;2023-03-22T07:00:15;91016.00;;;6.18;100.00
59274;BME280;45044;41.572;24.730;2023-03-22T07:02:42;91006.25;;;6.45;100.00
59274;BME280;45044;41.572;24.730;2023-03-22T07:05:12;91013.88;;;6.58;100.00
59274;BME280;45044;41.572;24.730;2023-03-22T07:07:38;91011.09;;;6.74;100.00
59274;BME280;45044;41.572;24.730;2023-03-22T07:10:05;91017.78;;;6.71;100.00
59274;BME280;45044;41.572;24.730;2023-03-22T07:12:33;91012.59;;;6.75;100.00
59274;BME280;45044;41.572;24.730;2023-03-22T07:15:01;91012.63;;;6.79;100.00
59274;BME280;45044;41.572;24.730;2023-03-22T07:17:27;91028.47;;;6.93;100.00
59274;BME280;45044;41.572;24.730;2023-03-22T07:19:54;91021.72;;;6.89;100.00
59274;BME280;45044;41.572;24.730;2023-03-22T07:22:21;91017.56;;;6.53;100.00
59274;BME280;45044;41.572;24.730;2023-03-22T07:24:48;91025.38;;;6.53;100.00
59274;BME280;45044;41.572;24.730;2023-03-22T07:27:23;91029.50;;;6.54;100.00
59274;BME280;45044;41.572;24.730;2023-03-22T07:29:50;91027.81;;;6.39;100.00
59274;BME280;45044;41.572;24.730;2023-03-22T07:32:16;91027.88;;;6.73;100.00
59274;BME280;45044;41.572;24.730;2023-03-22T07:34:43;91034.41;;;6.90;100.00
59274;BME280;45044;41.572;24.730;2023-03-22T07:37:10;91033.81;;;6.70;100.00
59274;BME280;45044;41.572;24.730;2023-03-22T07:39:37;91032.72;;;6.75;100.00
59274;BME280;45044;41.572;24.730;2023-03-22T07:42:04;91035.69;;;6.73;100.00
59274;BME280;45044;41.572;24.730;2023-03-22T07:44:31;91035.91;;;6.91;100.00
59274;BME280;45044;41.572;24.730;2023-03-22T07:46:57;91043.06;;;6.98;100.00
59274;BME280;45044;41.572;24.730;2023-03-22T07:49:24;91041.09;;;7.22;100.00
59274;BME280;45044;41.572;24.730;2023-03-22T07:51:52;91039.25;;;7.26;100.00
59274;BME280;45044;41.572;24.730;2023-03-22T07:54:26;91042.00;;;7.03;100.00
59274;BME280;45044;41.572;24.730;2023-03-22T07:57:00;91026.81;;;7.12;100.00
59274;BME280;45044;41.572;24.730;2023-03-22T07:59:26;91040.59;;;7.13;100.00
59274;BME280;45044;41.572;24.730;2023-03-22T08:01:54;91038.59;;;7.37;100.00
59274;BME280;45044;41.572;24.730;2023-03-22T08:04:21;91047.84;;;7.65;100.00
59274;BME280;45044;41.572;24.730;2023-03-22T08:06:48;91045.63;;;7.71;100.00
59274;BME280;45044;41.572;24.730;2023-03-22T08:09:16;91040.81;;;7.76;100.00
59274;BME280;45044;41.572;24.730;2023-03-22T08:11:42;91050.34;;;7.99;100.00
59274;BME280;45044;41.572;24.730;2023-03-22T08:14:09;91049.34;;;8.15;100.00
59274;BME280;45044;41.572;24.730;2023-03-22T08:16:36;91044.41;;;8.06;100.00
59274;BME280;45044;41.572;24.730;2023-03-22T08:19:04;91043.50;;;7.84;100.00
59274;BME280;45044;41.572;24.730;2023-03-22T08:21:31;91047.44;;;7.21;100.00
59274;BME280;45044;41.572;24.730;2023-03-22T08:23:58;91046.25;;;7.57;100.00
59274;BME280;45044;41.572;24.730;2023-03-22T08:26:24;91046.47;;;7.37;100.00
59274;BME280;45044;41.572;24.730;2023-03-22T08:28:52;91049.63;;;7.15;100.00
59274;BME280;45044;41.572;24.730;2023-03-22T08:31:19;91047.84;;;7.23;100.00
59274;BME280;45044;41.572;24.730;2023-03-22T08:33:46;91048.94;;;7.22;100.00
59274;BME280;45044;41.572;24.730;2023-03-22T08:36:16;91034.91;;;7.83;100.00
59274;BME280;45044;41.572;24.730;2023-03-22T08:38:44;91042.06;;;7.90;100.00
59274;BME280;45044;41.572;24.730;2023-03-22T08:41:12;91039.44;;;7.45;100.00
59274;BME280;45044;41.572;24.730;2023-03-22T08:43:38;91046.84;;;7.01;100.00
59274;BME280;45044;41.572;24.730;2023-03-22T08:46:05;91052.44;;;6.99;100.00
59274;BME280;45044;41.572;24.730;2023-03-22T08:48:33;91047.34;;;7.14;100.00
59274;BME280;45044;41.572;24.730;2023-03-22T08:51:03;91049.41;;;6.97;100.00
59274;BME280;45044;41.572;24.730;2023-03-22T08:53:30;91053.22;;;7.38;100.00
59274;BME280;45044;41.572;24.730;2023-03-22T08:55:57;91044.75;;;7.14;100.00
59274;BME280;45044;41.572;24.730;2023-03-22T08:58:28;91056.78;;;6.88;100.00
59274;BME280;45044;41.572;24.730;2023-03-22T09:00:54;91051.25;;;7.31;100.00
59274;BME280;45044;41.572;24.730;2023-03-22T09:03:21;91051.00;;;7.05;100.00
59274;BME280;45044;41.572;24.730;2023-03-22T09:05:50;91062.09;;;6.95;100.00
59274;BME280;45044;41.572;24.730;2023-03-22T09:08:17;91050.88;;;7.33;100.00
59274;BME280;45044;41.572;24.730;2023-03-22T09:10:48;91052.72;;;6.90;100.00
59274;BME280;45044;41.572;24.730;2023-03-22T09:13:18;91056.06;;;6.91;100.00
59274;BME280;45044;41.572;24.730;2023-03-22T09:15:46;91055.44;;;7.01;100.00
59274;BME280;45044;41.572;24.730;2023-03-22T09:18:13;91059.06;;;6.93;100.00
59274;BME280;45044;41.572;24.730;2023-03-22T09:20:41;91061.31;;;6.94;100.00
59274;BME280;45044;41.572;24.730;2023-03-22T09:23:08;91056.38;;;6.55;100.00
59274;BME280;45044;41.572;24.730;2023-03-22T09:25:35;91062.81;;;6.92;100.00
59274;BME280;45044;41.572;24.730;2023-03-22T09:28:03;91062.53;;;7.39;100.00
59274;BME280;45044;41.572;24.730;2023-03-22T09:30:30;91054.50;;;7.59;100.00
59274;BME280;45044;41.572;24.730;2023-03-22T09:32:56;91053.66;;;7.47;100.00
59274;BME280;45044;41.572;24.730;2023-03-22T09:35:23;91059.63;;;7.48;100.00
59274;BME280;45044;41.572;24.730;2023-03-22T09:37:51;91050.19;;;7.36;100.00
59274;BME280;45044;41.572;24.730;2023-03-22T09:40:24;91056.69;;;7.15;100.00
59274;BME280;45044;41.572;24.730;2023-03-22T09:42:53;91056.78;;;7.64;100.00
59274;BME280;45044;41.572;24.730;2023-03-22T09:45:38;91054.88;;;8.02;100.00
59274;BME280;45044;41.572;24.730;2023-03-22T09:48:18;91052.00;;;7.73;100.00
59274;BME280;45044;41.572;24.730;2023-03-22T09:50:49;91052.78;;;7.74;100.00
59274;BME280;45044;41.572;24.730;2023-03-22T09:53:17;91055.38;;;7.70;100.00
59274;BME280;45044;41.572;24.730;2023-03-22T09:58:34;91056.69;;;7.53;100.00
59274;BME280;45044;41.572;24.730;2023-03-22T10:01:12;91059.94;;;7.39;100.00
59274;BME280;45044;41.572;24.730;2023-03-22T10:04:00;91061.19;;;7.18;100.00
59274;BME280;45044;41.572;24.730;2023-03-22T10:06:30;91058.41;;;7.76;100.00
59274;BME280;45044;41.572;24.730;2023-03-22T10:11:46;91058.09;;;7.85;100.00
59274;BME280;45044;41.572;24.730;2023-03-22T10:14:26;91058.63;;;8.09;100.00
59274;BME280;45044;41.572;24.730;2023-03-22T10:16:56;91052.44;;;7.79;100.00
59274;BME280;45044;41.572;24.730;2023-03-22T10:19:32;91064.63;;;7.64;100.00
59274;BME280;45044;41.572;24.730;2023-03-22T10:22:03;91057.59;;;7.30;100.00
59274;BME280;45044;41.572;24.730;2023-03-22T10:24:34;91049.66;;;7.19;100.00
59274;BME280;45044;41.572;24.730;2023-03-22T10:27:01;91061.63;;;7.24;100.00
59274;BME280;45044;41.572;24.730;2023-03-22T10:29:36;91058.00;;;7.32;100.00
59274;BME280;45044;41.572;24.730;2023-03-22T10:32:19;91060.19;;;7.26;100.00
59274;BME280;45044;41.572;24.730;2023-03-22T10:34:50;91060.66;;;7.36;100.00
59274;BME280;45044;41.572;24.730;2023-03-22T10:37:29;91048.97;;;7.26;100.00
59274;BME280;45044;41.572;24.730;2023-03-22T10:39:59;91049.38;;;7.28;100.00
59274;BME280;45044;41.572;24.730;2023-03-22T10:42:27;91054.41;;;7.48;100.00
59274;BME280;45044;41.572;24.730;2023-03-22T10:45:07;91044.84;;;7.63;100.00
59274;BME280;45044;41.572;24.730;2023-03-22T10:50:31;91041.75;;;7.53;100.00
59274;BME280;45044;41.572;24.730;2023-03-22T10:53:15;91042.97;;;7.25;100.00
59274;BME280;45044;41.572;24.730;2023-03-22T10:55:48;91043.97;;;7.51;100.00
59274;BME280;45044;41.572;24.730;2023-03-22T10:58:15;91036.97;;;7.63;100.00
59274;BME280;45044;41.572;24.730;2023-03-22T11:00:53;91034.50;;;7.77;100.00
59274;BME280;45044;41.572;24.730;2023-03-22T11:09:01;91031.63;;;7.48;100.00
59274;BME280;45044;41.572;24.730;2023-03-22T11:11:52;91030.41;;;7.84;100.00
59274;BME280;45044;41.572;24.730;2023-03-22T11:14:27;91023.44;;;8.02;100.00
59274;BME280;45044;41.572;24.730;2023-03-22T11:17:06;91026.88;;;8.10;100.00
59274;BME280;45044;41.572;24.730;2023-03-22T11:19:50;91025.78;;;8.15;100.00
59274;BME280;45044;41.572;24.730;2023-03-22T11:22:36;91020.94;;;8.17;100.00
59274;BME280;45044;41.572;24.730;2023-03-22T11:28:17;91015.84;;;8.43;100.00
59274;BME280;45044;41.572;24.730;2023-03-22T11:33:25;91016.50;;;9.14;100.00
59274;BME280;45044;41.572;24.730;2023-03-22T11:35:54;91004.53;;;9.13;100.00
59274;BME280;45044;41.572;24.730;2023-03-22T11:38:24;91008.31;;;9.34;100.00
59274;BME280;45044;41.572;24.730;2023-03-22T11:40:59;91001.94;;;9.28;100.00
59274;BME280;45044;41.572;24.730;2023-03-22T11:43:48;90997.44;;;9.21;100.00
59274;BME280;45044;41.572;24.730;2023-03-22T11:46:19;90998.88;;;9.07;100.00
59274;BME280;45044;41.572;24.730;2023-03-22T11:48:49;91000.06;;;9.21;100.00
59274;BME280;45044;41.572;24.730;2023-03-22T11:51:26;91002.25;;;9.04;100.00
59274;BME280;45044;41.572;24.730;2023-03-22T11:54:05;90999.91;;;8.77;100.00
59274;BME280;45044;41.572;24.730;2023-03-22T11:56:39;90999.22;;;8.95;100.00
59274;BME280;45044;41.572;24.730;2023-03-22T11:59:13;91001.19;;;9.34;100.00
59274;BME280;45044;41.572;24.730;2023-03-22T12:04:37;91000.06;;;9.25;100.00
59274;BME280;45044;41.572;24.730;2023-03-22T12:07:12;91007.56;;;9.33;100.00
59274;BME280;45044;41.572;24.730;2023-03-22T12:09:45;91005.34;;;9.61;100.00
59274;BME280;45044;41.572;24.730;2023-03-22T12:12:20;91000.81;;;9.43;100.00
59274;BME280;45044;41.572;24.730;2023-03-22T12:14:53;90990.66;;;9.23;100.00
59274;BME280;45044;41.572;24.730;2023-03-22T12:17:31;90997.84;;;9.81;100.00
59274;BME280;45044;41.572;24.730;2023-03-22T12:20:15;90992.59;;;9.85;100.00
59274;BME280;45044;41.572;24.730;2023-03-22T12:22:47;90992.97;;;9.80;100.00
59274;BME280;45044;41.572;24.730;2023-03-22T12:25:24;90991.47;;;10.01;100.00
59274;BME280;45044;41.572;24.730;2023-03-22T12:27:57;90990.31;;;10.16;100.00
59274;BME280;45044;41.572;24.730;2023-03-22T12:30:27;90988.81;;;10.15;100.00
59274;BME280;45044;41.572;24.730;2023-03-22T12:33:03;90986.56;;;10.21;100.00
59274;BME280;45044;41.572;24.730;2023-03-22T12:35:34;90981.28;;;10.43;100.00
59274;BME280;45044;41.572;24.730;2023-03-22T12:38:12;90980.50;;;10.61;100.00
59274;BME280;45044;41.572;24.730;2023-03-22T12:40:42;90981.91;;;10.80;100.00
59274;BME280;45044;41.572;24.730;2023-03-22T12:43:17;90990.13;;;10.93;100.00
59274;BME280;45044;41.572;24.730;2023-03-22T12:45:51;90988.94;;;11.05;100.00
59274;BME280;45044;41.572;24.730;2023-03-22T12:48:37;90989.97;;;11.22;100.00
59274;BME280;45044;41.572;24.730;2023-03-22T12:51:10;90991.97;;;11.00;100.00
59274;BME280;45044;41.572;24.730;2023-03-22T12:53:50;90985.78;;;11.32;100.00
59274;BME280;45044;41.572;24.730;2023-03-22T12:56:34;90985.38;;;11.41;100.00
59274;BME280;45044;41.572;24.730;2023-03-22T12:59:05;90976.88;;;11.72;100.00
59274;BME280;45044;41.572;24.730;2023-03-22T13:01:53;90975.28;;;11.29;100.00
59274;BME280;45044;41.572;24.730;2023-03-22T13:07:12;90982.56;;;11.67;100.00
59274;BME280;45044;41.572;24.730;2023-03-22T13:09:46;90983.75;;;11.58;100.00
59274;BME280;45044;41.572;24.730;2023-03-22T13:19:57;91001.03;;;10.88;100.00
59274;BME280;45044;41.572;24.730;2023-03-22T13:25:04;90987.25;;;10.43;100.00
59274;BME280;45044;41.572;24.730;2023-03-22T13:33:17;90998.53;;;10.40;100.00
59274;BME280;45044;41.572;24.730;2023-03-22T13:38:38;91003.06;;;10.22;100.00
59274;BME280;45044;41.572;24.730;2023-03-22T13:41:26;91001.59;;;9.66;100.00
59274;BME280;45044;41.572;24.730;2023-03-22T13:43:55;91002.34;;;9.85;100.00
59274;BME280;45044;41.572;24.730;2023-03-22T13:47:05;90999.34;;;9.72;100.00
59274;BME280;45044;41.572;24.730;2023-03-22T13:51:46;91001.22;;;10.11;100.00
59274;BME280;45044;41.572;24.730;2023-03-22T13:59:17;91002.69;;;10.27;100.00
59274;BME280;45044;41.572;24.730;2023-03-22T14:01:53;90999.28;;;10.52;100.00
59274;BME280;45044;41.572;24.730;2023-03-22T14:04:29;90996.31;;;10.32;100.00
59274;BME280;45044;41.572;24.730;2023-03-22T14:09:56;90998.53;;;10.33;100.00
59274;BME280;45044;41.572;24.730;2023-03-22T14:12:59;90988.81;;;10.30;100.00
59274;BME280;45044;41.572;24.730;2023-03-22T14:15:31;90998.94;;;10.32;100.00
59274;BME280;45044;41.572;24.730;2023-03-22T14:18:05;90992.53;;;10.25;100.00
59274;BME280;45044;41.572;24.730;2023-03-22T14:20:35;90998.56;;;10.22;100.00
59274;BME280;45044;41.572;24.730;2023-03-22T14:23:06;90997.09;;;9.99;100.00
59274;BME280;45044;41.572;24.730;2023-03-22T14:25:33;91000.09;;;10.01;100.00
59274;BME280;45044;41.572;24.730;2023-03-22T14:28:00;91003.84;;;9.89;100.00
59274;BME280;45044;41.572;24.730;2023-03-22T14:30:27;91004.59;;;10.08;100.00
59274;BME280;45044;41.572;24.730;2023-03-22T14:32:57;91008.00;;;9.98;100.00
59274;BME280;45044;41.572;24.730;2023-03-22T14:35:37;91006.09;;;9.80;100.00